Time;durP1;ratioP1;P1;durP2;ratioP2;P2;SDS_P1;SDS_P2;PMS_P1;PMS_P2;Temp;Humidity;BMP_temperature;BMP_pressure;BME280_temperature;BME280_humidity;BME280_pressure;Samples;Min_cycle;Max_cycle;Signal;HPM_P1;HPM_P2
2022/03/17 00:00:09;;;;;;;39.23;35.10;;;8.70;99.90;;;;;;5019226;28;20457;-69
2022/03/17 00:02:36;;;;;;;37.97;33.83;;;8.60;99.90;;;;;;5007238;28;20873;-69
2022/03/17 00:05:02;;;;;;;38.40;34.30;;;8.60;99.90;;;;;;5029172;28;20437;-69
2022/03/17 00:07:29;;;;;;;41.20;36.40;;;8.50;99.90;;;;;;5028475;28;20472;-70
2022/03/17 00:09:55;;;;;;;39.80;35.40;;;8.40;99.90;;;;;;5025728;28;21005;-69
2022/03/17 00:12:21;;;;;;;38.20;34.00;;;8.40;99.90;;;;;;5031214;28;20460;-68
2022/03/17 00:14:47;;;;;;;40.90;34.50;;;8.40;99.90;;;;;;5002573;28;20186;-69
2022/03/17 00:17:12;;;;;;;40.00;35.67;;;8.40;99.90;;;;;;5013619;28;20426;-69
2022/03/17 00:19:38;;;;;;;43.37;36.63;;;8.40;99.90;;;;;;5028258;28;20202;-69
2022/03/17 00:22:09;;;;;;;39.07;33.73;;;8.40;99.90;;;;;;5032252;28;20235;-69
2022/03/17 00:24:37;;;;;;;41.37;34.67;;;8.40;99.90;;;;;;5016357;28;20175;-69
2022/03/17 00:27:08;;;;;;;39.03;34.00;;;8.40;99.90;;;;;;5027714;28;20508;-70
2022/03/17 00:29:35;;;;;;;39.63;33.53;;;8.40;99.90;;;;;;5000916;28;20472;-69
2022/03/17 00:32:01;;;;;;;36.47;31.90;;;8.40;99.90;;;;;;5019085;28;20436;-69
2022/03/17 00:34:26;;;;;;;39.03;33.70;;;8.50;99.90;;;;;;5026673;28;20943;-69
2022/03/17 00:36:52;;;;;;;39.03;34.67;;;8.60;99.90;;;;;;5016319;28;20258;-69
2022/03/17 00:39:17;;;;;;;37.63;33.57;;;8.60;99.90;;;;;;5024175;28;20229;-69
2022/03/17 00:41:44;;;;;;;37.93;33.30;;;8.50;99.90;;;;;;5029389;28;20257;-69
2022/03/17 00:44:10;;;;;;;37.10;32.50;;;8.40;99.90;;;;;;5031715;28;20182;-69
2022/03/17 00:46:36;;;;;;;37.70;33.77;;;8.40;99.90;;;;;;5023657;28;20433;-69
2022/03/17 00:49:02;;;;;;;39.37;33.80;;;8.40;99.90;;;;;;5021528;28;20921;-69
2022/03/17 00:51:28;;;;;;;37.80;32.90;;;8.40;99.90;;;;;;5023293;28;20437;-69
2022/03/17 00:53:53;;;;;;;45.97;33.87;;;8.40;99.90;;;;;;5026821;28;20431;-69
2022/03/17 00:56:19;;;;;;;39.27;34.53;;;8.40;99.90;;;;;;5023223;28;20174;-69
2022/03/17 00:58:48;;;;;;;38.00;32.47;;;8.30;99.90;;;;;;5018842;28;20558;-69
2022/03/17 01:01:15;;;;;;;39.13;33.93;;;8.30;99.90;;;;;;5022914;28;20179;-69
2022/03/17 01:03:42;;;;;;;38.47;33.87;;;8.30;99.90;;;;;;5007294;28;20794;-70
2022/03/17 01:06:08;;;;;;;39.63;34.00;;;8.30;99.90;;;;;;5023651;28;20436;-69
2022/03/17 01:08:33;;;;;;;40.90;35.43;;;8.40;99.90;;;;;;5029859;28;20461;-69
2022/03/17 01:10:59;;;;;;;35.50;31.70;;;8.40;99.90;;;;;;5022048;28;20425;-69
2022/03/17 01:13:25;;;;;;;37.43;33.43;;;8.30;99.90;;;;;;5017572;28;20829;-69
2022/03/17 01:15:50;;;;;;;43.20;34.23;;;8.20;99.90;;;;;;5013244;28;20182;-69
2022/03/17 01:18:16;;;;;;;36.20;32.40;;;8.20;99.90;;;;;;5016649;28;20190;-69
2022/03/17 01:20:41;;;;;;;44.30;34.50;;;8.20;99.90;;;;;;5026466;28;20166;-71
2022/03/17 01:23:08;;;;;;;37.90;32.47;;;8.20;99.90;;;;;;5011379;28;20190;-69
2022/03/17 01:25:34;;;;;;;38.83;34.60;;;8.20;99.90;;;;;;5022365;28;20175;-69
2022/03/17 01:27:59;;;;;;;39.30;34.83;;;8.20;99.90;;;;;;5018540;28;20959;-69
2022/03/17 01:30:26;;;;;;;37.67;31.87;;;8.20;99.90;;;;;;5026543;28;20190;-70
2022/03/17 01:32:51;;;;;;;39.93;35.60;;;8.20;99.90;;;;;;5012958;28;20187;-69
2022/03/17 01:35:17;;;;;;;45.00;37.53;;;8.20;99.90;;;;;;5017532;28;20432;-69
2022/03/17 01:37:43;;;;;;;37.67;33.03;;;8.20;99.90;;;;;;5021371;28;20224;-69
2022/03/17 01:40:09;;;;;;;43.87;35.10;;;8.10;99.90;;;;;;5028654;28;20229;-69
2022/03/17 01:42:35;;;;;;;40.93;34.10;;;8.10;99.90;;;;;;5012310;28;20183;-69
2022/03/17 01:45:00;;;;;;;42.47;35.27;;;8.10;99.90;;;;;;5023412;28;20844;-69
2022/03/17 01:47:29;;;;;;;39.93;32.20;;;8.20;99.90;;;;;;5012104;28;20179;-70
2022/03/17 01:50:11;;;;;;;36.60;32.57;;;8.10;99.90;;;;;;5016743;28;20459;-70
2022/03/17 01:52:38;;;;;;;41.47;33.17;;;8.10;99.90;;;;;;5022622;28;20425;-69
2022/03/17 01:55:06;;;;;;;43.13;35.33;;;8.10;99.90;;;;;;5025620;28;20440;-69
2022/03/17 01:57:31;;;;;;;41.43;34.23;;;8.10;99.90;;;;;;5020458;28;20473;-70
2022/03/17 01:59:58;;;;;;;37.57;33.40;;;8.20;99.90;;;;;;5022106;28;20882;-70
2022/03/17 02:02:24;;;;;;;36.90;32.87;;;8.10;99.90;;;;;;5013262;28;20472;-69
2022/03/17 02:04:50;;;;;;;39.10;33.07;;;8.20;99.90;;;;;;5021353;28;20957;-70
2022/03/17 02:07:16;;;;;;;38.33;32.93;;;8.10;99.90;;;;;;5001917;28;20436;-69
2022/03/17 02:09:43;;;;;;;39.90;32.73;;;8.10;99.90;;;;;;5011320;28;20234;-70
2022/03/17 02:14:58;;;;;;;39.77;35.00;;;8.20;99.90;;;;;;5019456;28;20428;-70
2022/03/17 02:17:24;;;;;;;39.50;34.90;;;8.20;99.90;;;;;;5024883;28;20486;-70
2022/03/17 02:19:51;;;;;;;37.90;31.97;;;8.20;99.90;;;;;;5034550;28;20444;-69
2022/03/17 02:22:20;;;;;;;43.10;34.70;;;8.20;99.90;;;;;;5016074;28;20512;-69
2022/03/17 02:27:35;;;;;;;42.77;34.20;;;8.10;99.90;;;;;;5021129;28;20487;-69
2022/03/17 02:30:03;;;;;;;41.07;34.90;;;8.10;99.90;;;;;;5016526;28;20515;-69
2022/03/17 02:32:29;;;;;;;37.17;32.67;;;8.10;99.90;;;;;;5002414;28;20437;-69
2022/03/17 02:34:54;;;;;;;40.43;34.33;;;8.10;99.90;;;;;;5020438;28;20430;-69
2022/03/17 02:37:21;;;;;;;41.80;34.90;;;8.10;99.90;;;;;;5023515;28;20174;-70
2022/03/17 02:39:47;;;;;;;37.90;32.67;;;8.00;99.90;;;;;;5020124;28;20572;-69
2022/03/17 02:42:12;;;;;;;41.27;36.63;;;7.90;99.90;;;;;;5033045;28;20440;-69
2022/03/17 02:44:38;;;;;;;37.57;33.27;;;7.90;99.90;;;;;;5022485;28;20206;-69
2022/03/17 02:47:05;;;;;;;41.53;34.43;;;7.90;99.90;;;;;;5028982;28;20601;-69
2022/03/17 02:49:30;;;;;;;41.00;33.77;;;8.00;99.90;;;;;;5033854;28;20469;-69
2022/03/17 02:51:56;;;;;;;37.80;31.63;;;8.00;99.90;;;;;;5021013;28;20476;-69
2022/03/17 02:54:21;;;;;;;41.10;36.27;;;8.00;99.90;;;;;;5016283;28;20437;-70
2022/03/17 02:56:47;;;;;;;42.23;35.07;;;8.00;99.90;;;;;;5020208;28;20179;-69
2022/03/17 02:59:13;;;;;;;36.83;32.50;;;8.00;99.90;;;;;;5013281;28;20681;-70
2022/03/17 03:01:39;;;;;;;39.17;34.13;;;8.00;99.90;;;;;;5019729;28;20745;-69
2022/03/17 03:04:05;;;;;;;40.80;34.27;;;8.10;99.90;;;;;;5020014;28;20170;-70
2022/03/17 03:06:31;;;;;;;39.50;32.50;;;8.10;99.90;;;;;;5032779;28;20459;-69
2022/03/17 03:08:58;;;;;;;46.97;34.60;;;8.10;99.90;;;;;;5020907;28;20202;-70
2022/03/17 03:11:24;;;;;;;40.83;33.03;;;8.10;99.90;;;;;;5021939;28;20241;-69
2022/03/17 03:13:49;;;;;;;39.20;34.30;;;8.10;99.90;;;;;;5032292;28;20429;-69
2022/03/17 03:16:15;;;;;;;38.33;32.83;;;8.20;99.90;;;;;;5014587;28;20183;-69
2022/03/17 03:18:40;;;;;;;39.53;34.13;;;8.20;99.90;;;;;;5017591;28;20210;-70
2022/03/17 03:21:07;;;;;;;41.33;32.67;;;8.20;99.90;;;;;;5018726;28;20265;-69
2022/03/17 03:23:33;;;;;;;43.70;35.93;;;8.10;99.90;;;;;;5016321;28;20187;-69
2022/03/17 03:25:58;;;;;;;40.80;34.10;;;8.20;99.90;;;;;;5017076;28;20429;-69
2022/03/17 03:28:24;;;;;;;47.00;35.57;;;8.10;99.90;;;;;;5023776;28;20543;-69
2022/03/17 03:30:50;;;;;;;43.27;35.97;;;8.10;99.90;;;;;;5027599;28;20248;-69
2022/03/17 03:33:16;;;;;;;46.27;37.07;;;8.10;99.90;;;;;;5031017;28;20667;-69
2022/03/17 03:38:26;;;;;;;48.17;37.50;;;8.00;99.90;;;;;;5020306;28;20198;-69
2022/03/17 03:40:52;;;;;;;45.17;36.00;;;7.90;99.90;;;;;;5021239;28;20437;-69
2022/03/17 03:43:18;;;;;;;47.87;36.43;;;7.90;99.90;;;;;;5026772;28;20182;-69
2022/03/17 03:45:43;;;;;;;51.30;37.50;;;7.90;99.90;;;;;;5024218;28;20179;-69
2022/03/17 03:48:09;;;;;;;41.57;35.23;;;7.80;99.90;;;;;;5025594;28;20464;-69
2022/03/17 03:50:34;;;;;;;42.50;34.77;;;7.80;99.90;;;;;;5030214;28;20252;-69
2022/03/17 03:53:00;;;;;;;42.97;35.43;;;7.80;99.90;;;;;;5026533;28;20175;-69
2022/03/17 03:55:25;;;;;;;43.67;35.87;;;7.80;99.90;;;;;;5019183;28;20664;-69
2022/03/17 03:57:51;;;;;;;43.33;36.90;;;7.80;99.90;;;;;;5018774;28;20253;-68
2022/03/17 04:02:43;;;;;;;39.73;35.43;;;7.80;99.90;;;;;;5032799;28;20261;-69
2022/03/17 04:05:10;;;;;;;47.53;35.30;;;7.80;99.90;;;;;;5017888;28;20548;-69
2022/03/17 04:07:37;;;;;;;46.00;34.43;;;7.80;99.90;;;;;;5024829;28;20429;-69
2022/03/17 04:10:03;;;;;;;43.30;35.47;;;7.80;99.90;;;;;;5021036;28;20445;-69
2022/03/17 04:12:29;;;;;;;45.20;35.30;;;7.90;99.90;;;;;;5015128;28;20426;-69
2022/03/17 04:14:56;;;;;;;42.83;35.30;;;7.90;99.90;;;;;;5026699;28;20816;-69
2022/03/17 04:17:21;;;;;;;43.63;35.73;;;8.00;99.90;;;;;;5031106;28;20186;-69
2022/03/17 04:19:47;;;;;;;45.93;35.93;;;8.00;99.90;;;;;;5012685;28;20465;-69
2022/03/17 04:22:12;;;;;;;45.23;36.27;;;8.00;99.90;;;;;;5022832;28;20210;-68
2022/03/17 04:24:38;;;;;;;41.87;35.43;;;8.00;99.90;;;;;;5021804;28;20228;-69
2022/03/17 04:27:05;;;;;;;43.17;35.27;;;8.00;99.90;;;;;;5026068;28;20183;-68
2022/03/17 04:29:30;;;;;;;45.60;39.73;;;7.90;99.90;;;;;;5012576;28;20199;-69
2022/03/17 04:31:56;;;;;;;42.83;35.97;;;7.90;99.90;;;;;;5024259;28;20437;-69
2022/03/17 04:34:21;;;;;;;44.40;36.20;;;7.90;99.90;;;;;;5021092;28;20175;-69
2022/03/17 04:36:47;;;;;;;44.20;36.27;;;7.90;99.90;;;;;;5014038;28;20186;-69
2022/03/17 04:39:13;;;;;;;46.30;34.50;;;7.80;99.90;;;;;;5022518;28;20677;-69
2022/03/17 04:41:41;;;;;;;45.87;36.73;;;7.80;99.90;;;;;;5012897;28;20677;-68
2022/03/17 04:44:09;;;;;;;43.53;34.03;;;7.90;99.90;;;;;;5029250;28;20178;-69
2022/03/17 04:46:34;;;;;;;45.50;36.87;;;7.80;99.90;;;;;;5028198;28;20433;-68
2022/03/17 04:49:00;;;;;;;47.67;36.93;;;7.80;99.90;;;;;;5024220;28;20514;-69
2022/03/17 04:51:26;;;;;;;52.03;37.10;;;7.80;99.90;;;;;;5022439;28;20263;-69
2022/03/17 04:53:51;;;;;;;44.63;35.37;;;7.90;99.90;;;;;;5017537;28;20178;-69
2022/03/17 04:56:18;;;;;;;39.03;34.50;;;8.00;99.90;;;;;;5012680;28;20179;-68
2022/03/17 04:58:44;;;;;;;46.60;37.20;;;8.00;99.90;;;;;;5017732;28;20194;-69
2022/03/17 05:01:15;;;;;;;42.17;35.57;;;8.00;99.90;;;;;;5021492;28;20434;-69
2022/03/17 05:03:41;;;;;;;43.50;33.70;;;8.10;99.90;;;;;;5015102;28;20429;-68
2022/03/17 05:06:11;;;;;;;42.90;35.13;;;8.10;99.90;;;;;;5013749;28;20440;-69
2022/03/17 05:08:36;;;;;;;46.00;34.67;;;8.00;99.90;;;;;;5018478;28;20560;-69
2022/03/17 05:11:07;;;;;;;45.70;37.90;;;8.00;99.90;;;;;;5023818;28;20516;-69
2022/03/17 05:13:33;;;;;;;41.63;34.57;;;8.00;99.90;;;;;;5018110;28;20176;-69
2022/03/17 05:15:59;;;;;;;49.30;36.80;;;8.00;99.90;;;;;;5029263;28;20432;-69
2022/03/17 05:18:25;;;;;;;43.27;35.90;;;8.10;99.90;;;;;;5020145;28;20924;-69
2022/03/17 05:20:51;;;;;;;44.73;35.40;;;8.10;99.90;;;;;;5016424;28;20591;-68
2022/03/17 05:23:18;;;;;;;40.73;33.03;;;8.10;99.90;;;;;;5016694;28;20465;-69
2022/03/17 05:25:45;;;;;;;48.13;37.53;;;8.20;99.90;;;;;;5025484;28;20738;-68
2022/03/17 05:28:12;;;;;;;52.07;41.03;;;8.10;99.90;;;;;;5027120;28;20504;-69
2022/03/17 05:30:39;;;;;;;53.30;38.27;;;8.10;99.90;;;;;;5029522;28;20444;-69
2022/03/17 05:33:05;;;;;;;47.50;36.97;;;8.00;99.90;;;;;;5018915;28;20429;-68
2022/03/17 05:35:32;;;;;;;48.77;38.70;;;7.90;99.90;;;;;;5026979;28;20516;-68
2022/03/17 05:37:58;;;;;;;44.93;35.87;;;7.90;99.90;;;;;;5026424;28;20461;-69
2022/03/17 05:40:24;;;;;;;45.80;37.47;;;7.90;99.90;;;;;;5028184;28;20581;-69
2022/03/17 05:42:55;;;;;;;44.23;37.67;;;7.80;99.90;;;;;;5024109;28;20918;-69
2022/03/17 05:45:22;;;;;;;46.00;36.43;;;7.80;99.90;;;;;;5029091;28;20476;-69
2022/03/17 05:47:51;;;;;;;47.60;37.30;;;7.90;99.90;;;;;;5016010;28;20466;-68
2022/03/17 05:50:20;;;;;;;45.43;37.03;;;7.90;99.90;;;;;;5027323;28;20477;-69
2022/03/17 05:52:46;;;;;;;41.67;34.73;;;7.90;99.90;;;;;;5024081;28;20846;-69
2022/03/17 05:55:14;;;;;;;44.77;36.83;;;7.90;99.90;;;;;;5035067;28;20515;-69
2022/03/17 05:57:41;;;;;;;50.37;39.70;;;7.90;99.90;;;;;;5013366;28;20429;-69
2022/03/17 06:00:09;;;;;;;47.37;36.03;;;7.90;99.90;;;;;;5018773;28;20802;-69
2022/03/17 06:02:35;;;;;;;45.60;36.20;;;8.10;99.90;;;;;;5026403;28;20439;-69
2022/03/17 06:05:02;;;;;;;43.60;37.50;;;8.10;99.90;;;;;;5033343;28;20433;-69
2022/03/17 06:07:38;;;;;;;49.17;37.43;;;8.20;99.90;;;;;;5032187;28;20940;-68
2022/03/17 06:10:05;;;;;;;47.47;37.23;;;8.30;99.90;;;;;;5018248;28;20452;-69
2022/03/17 06:12:31;;;;;;;45.33;36.30;;;8.20;99.90;;;;;;5034223;28;20508;-69
2022/03/17 06:14:57;;;;;;;42.67;36.70;;;8.10;99.90;;;;;;5020731;28;20508;-69
2022/03/17 06:17:23;;;;;;;49.87;38.60;;;8.10;99.90;;;;;;5018866;28;20712;-69
2022/03/17 06:19:49;;;;;;;47.33;37.83;;;8.10;99.90;;;;;;5030775;28;20538;-69
2022/03/17 06:22:14;;;;;;;48.00;38.70;;;8.00;99.90;;;;;;5024355;28;20753;-69
2022/03/17 06:24:40;;;;;;;47.50;36.97;;;8.00;99.90;;;;;;5034307;28;20193;-69
2022/03/17 06:27:05;;;;;;;50.30;38.70;;;8.00;99.90;;;;;;5021071;28;20717;-69
2022/03/17 06:29:31;;;;;;;48.43;36.30;;;8.10;99.90;;;;;;5026392;28;20220;-68
2022/03/17 06:31:57;;;;;;;45.70;35.63;;;8.20;99.90;;;;;;5027003;28;20175;-68
2022/03/17 06:34:22;;;;;;;46.10;36.20;;;8.20;99.90;;;;;;5024103;28;20270;-69
2022/03/17 06:36:48;;;;;;;47.30;37.30;;;8.20;99.90;;;;;;5014831;28;20873;-69
2022/03/17 06:39:13;;;;;;;45.57;37.17;;;8.20;99.90;;;;;;5018749;28;20219;-69
2022/03/17 06:41:39;;;;;;;49.13;39.97;;;8.20;99.90;;;;;;5021597;28;20548;-69
2022/03/17 06:44:04;;;;;;;49.50;38.40;;;8.20;99.90;;;;;;5020917;28;20597;-69
2022/03/17 06:46:30;;;;;;;44.40;36.43;;;8.20;99.90;;;;;;5016941;28;20175;-68
2022/03/17 06:48:58;;;;;;;46.13;36.60;;;8.30;99.90;;;;;;5020181;28;20197;-67
2022/03/17 06:51:24;;;;;;;48.43;38.53;;;8.30;99.90;;;;;;5015157;28;20617;-69
2022/03/17 06:53:49;;;;;;;47.10;37.27;;;8.30;99.90;;;;;;5014113;28;20496;-69
2022/03/17 06:56:15;;;;;;;41.60;35.07;;;8.50;99.90;;;;;;5019161;28;20554;-68
2022/03/17 06:58:40;;;;;;;49.33;36.47;;;8.50;99.90;;;;;;5017174;28;20202;-69
2022/03/17 07:01:06;;;;;;;45.10;36.30;;;8.60;99.90;;;;;;5014176;28;20229;-68
2022/03/17 07:03:31;;;;;;;45.07;38.23;;;8.70;99.90;;;;;;5014407;28;20667;-68
2022/03/17 07:05:57;;;;;;;51.63;39.37;;;8.70;99.90;;;;;;5015038;28;20659;-69
2022/03/17 07:08:22;;;;;;;49.70;37.53;;;8.80;99.90;;;;;;5028346;28;20216;-69
2022/03/17 07:10:47;;;;;;;55.97;41.50;;;8.80;99.90;;;;;;5020291;28;20543;-68
2022/03/17 07:13:13;;;;;;;51.83;38.60;;;8.80;99.90;;;;;;5022849;28;20201;-68
2022/03/17 07:15:39;;;;;;;49.10;39.40;;;8.90;99.90;;;;;;5027985;28;20175;-69
2022/03/17 07:18:05;;;;;;;48.07;37.90;;;8.90;99.90;;;;;;5027232;28;20281;-68
2022/03/17 07:20:30;;;;;;;48.83;37.87;;;8.90;99.90;;;;;;5015893;28;20674;-69
2022/03/17 07:22:56;;;;;;;48.90;35.50;;;9.00;99.90;;;;;;5015421;28;20229;-67
2022/03/17 07:25:23;;;;;;;45.57;35.87;;;9.20;99.90;;;;;;5029922;28;20174;-68
2022/03/17 07:27:49;;;;;;;44.60;32.47;;;9.50;99.90;;;;;;5032165;28;20245;-68
2022/03/17 07:30:20;;;;;;;43.10;37.53;;;9.80;99.90;;;;;;5032833;28;20468;-68
2022/03/17 07:32:48;;;;;;;44.63;34.50;;;10.00;99.90;;;;;;4997731;28;20189;-68
2022/03/17 07:35:14;;;;;;;44.80;37.70;;;10.10;99.90;;;;;;5019914;28;20445;-68
2022/03/17 07:37:41;;;;;;;42.60;36.13;;;10.10;99.90;;;;;;5027919;28;20452;-68
2022/03/17 07:40:07;;;;;;;46.30;38.00;;;10.00;99.90;;;;;;5023794;28;20972;-68
2022/03/17 07:42:32;;;;;;;43.47;37.47;;;9.90;99.90;;;;;;5019191;28;20438;-68
2022/03/17 07:44:58;;;;;;;41.37;35.47;;;9.90;99.90;;;;;;5007489;28;20864;-68
2022/03/17 07:47:23;;;;;;;44.77;36.53;;;9.80;99.90;;;;;;5017963;28;20874;-68
2022/03/17 07:49:50;;;;;;;43.13;37.80;;;9.70;99.90;;;;;;5017511;28;20207;-69
2022/03/17 07:52:15;;;;;;;43.77;36.67;;;9.80;99.90;;;;;;5013615;28;20174;-69
2022/03/17 07:54:41;;;;;;;44.53;35.70;;;9.90;99.90;;;;;;5012636;28;20437;-68
2022/03/17 07:57:07;;;;;;;42.40;34.77;;;9.80;99.90;;;;;;5017496;28;20209;-69
2022/03/17 07:59:33;;;;;;;42.03;35.10;;;9.50;99.90;;;;;;5017782;28;20201;-68
2022/03/17 08:01:59;;;;;;;45.47;37.27;;;9.40;99.90;;;;;;5009452;28;20775;-68
2022/03/17 08:04:25;;;;;;;44.40;36.17;;;9.30;99.90;;;;;;5008546;28;20449;-68
2022/03/17 08:06:53;;;;;;;46.23;37.80;;;9.20;99.90;;;;;;5012551;28;20186;-68
2022/03/17 08:09:19;;;;;;;44.00;37.67;;;9.20;99.90;;;;;;5013872;28;20215;-68
2022/03/17 08:11:48;;;;;;;50.67;38.87;;;9.20;99.90;;;;;;4997086;28;21212;-68
2022/03/17 08:14:16;;;;;;;43.93;38.60;;;9.30;99.90;;;;;;5023188;28;20425;-68
2022/03/17 08:16:43;;;;;;;48.60;38.93;;;9.30;99.90;;;;;;5009970;28;20434;-69
2022/03/17 08:19:12;;;;;;;49.50;39.50;;;9.30;99.90;;;;;;5016640;28;21028;-68
2022/03/17 08:21:40;;;;;;;47.20;37.80;;;9.30;99.90;;;;;;5014144;28;20433;-68
2022/03/17 08:24:07;;;;;;;49.37;40.83;;;9.30;99.90;;;;;;5015174;28;20428;-69
2022/03/17 08:26:33;;;;;;;48.07;39.53;;;9.30;99.90;;;;;;5006304;28;20438;-69
2022/03/17 08:29:00;;;;;;;45.93;39.17;;;9.20;99.90;;;;;;5009495;28;20466;-68
2022/03/17 08:31:26;;;;;;;58.00;41.23;;;9.30;99.90;;;;;;5000349;28;20438;-69
2022/03/17 08:33:52;;;;;;;50.27;40.90;;;9.50;99.90;;;;;;5008292;28;20430;-69
2022/03/17 08:36:17;;;;;;;52.43;37.17;;;9.70;99.90;;;;;;5024606;28;20433;-68
2022/03/17 08:38:43;;;;;;;44.53;35.93;;;9.70;99.90;;;;;;5013432;28;20317;-68
2022/03/17 08:41:08;;;;;;;45.03;34.73;;;9.70;99.90;;;;;;5020990;28;20599;-69
2022/03/17 08:43:34;;;;;;;44.90;37.50;;;9.70;99.90;;;;;;5024398;28;20178;-69
2022/03/17 08:51:28;;;;;;;46.67;36.53;;;9.60;99.90;;;;;;5024510;28;20472;-69
2022/03/17 08:53:54;;;;;;;45.83;36.37;;;9.60;99.90;;;;;;5019493;28;20436;-69
2022/03/17 08:56:19;;;;;;;45.43;35.53;;;9.70;99.90;;;;;;5030182;28;20433;-68
2022/03/17 08:58:45;;;;;;;43.87;34.90;;;9.70;99.90;;;;;;5019360;28;20281;-68
2022/03/17 09:01:11;;;;;;;41.20;33.70;;;9.60;99.90;;;;;;5023194;28;20189;-68
2022/03/17 09:03:36;;;;;;;44.17;35.60;;;9.60;99.90;;;;;;5015647;28;20433;-68
2022/03/17 09:06:02;;;;;;;45.23;36.67;;;9.60;99.90;;;;;;5012651;28;20194;-69
2022/03/17 09:08:28;;;;;;;43.47;34.17;;;9.70;99.90;;;;;;5015509;28;20202;-68
2022/03/17 09:10:55;;;;;;;43.10;34.27;;;9.80;99.90;;;;;;5012849;28;20179;-69
2022/03/17 09:13:25;;;;;;;44.27;37.67;;;9.90;99.90;;;;;;5031435;28;20181;-69
2022/03/17 09:15:52;;;;;;;43.50;37.13;;;9.90;99.90;;;;;;5026555;28;20428;-69
2022/03/17 09:18:19;;;;;;;42.20;34.27;;;10.00;99.90;;;;;;5018868;28;20433;-69
2022/03/17 09:20:44;;;;;;;44.37;36.00;;;10.00;99.90;;;;;;5013011;28;20433;-73
2022/03/17 09:23:10;;;;;;;43.63;35.93;;;10.20;99.90;;;;;;5017631;28;20442;-69
2022/03/17 09:25:35;;;;;;;40.20;34.40;;;10.30;99.90;;;;;;5015581;28;20186;-69
2022/03/17 09:28:02;;;;;;;43.50;34.73;;;10.50;99.90;;;;;;5015797;28;20190;-69
2022/03/17 09:30:28;;;;;;;46.37;34.03;;;10.50;99.90;;;;;;5015290;28;20197;-69
2022/03/17 09:32:54;;;;;;;44.30;36.67;;;10.60;99.90;;;;;;5011899;28;20426;-69
2022/03/17 09:35:21;;;;;;;47.17;35.90;;;10.90;99.90;;;;;;5024356;28;20175;-69
2022/03/17 09:37:47;;;;;;;39.57;34.30;;;11.00;99.90;;;;;;5012071;28;20878;-69
2022/03/17 09:40:14;;;;;;;42.50;34.90;;;11.10;99.90;;;;;;5011872;28;20473;-69
2022/03/17 09:42:40;;;;;;;38.70;33.63;;;11.20;99.90;;;;;;5028933;28;20435;-69
2022/03/17 09:45:07;;;;;;;44.20;37.60;;;11.20;99.90;;;;;;5024253;28;20186;-69
2022/03/17 09:47:37;;;;;;;45.10;35.00;;;11.10;99.90;;;;;;5015046;28;20436;-69
2022/03/17 09:50:06;;;;;;;41.60;36.10;;;11.20;99.90;;;;;;5031893;28;20498;-70
2022/03/17 09:52:32;;;;;;;40.47;35.63;;;11.30;99.90;;;;;;5017179;28;20422;-71
2022/03/17 09:54:58;;;;;;;40.80;35.37;;;11.30;99.90;;;;;;5011803;28;20430;-70
2022/03/17 09:57:23;;;;;;;40.10;32.60;;;11.40;99.90;;;;;;5024145;28;20432;-70
2022/03/17 09:59:56;;;;;;;37.03;30.87;;;11.40;99.90;;;;;;5028902;28;20198;-70
2022/03/17 10:02:22;;;;;;;39.13;32.97;;;11.40;99.90;;;;;;5011867;28;20186;-69
2022/03/17 10:04:48;;;;;;;40.10;35.70;;;11.60;99.90;;;;;;5018848;28;20495;-69
2022/03/17 10:07:18;;;;;;;38.93;34.73;;;11.80;99.90;;;;;;5029605;28;20971;-69
2022/03/17 10:09:45;;;;;;;43.00;33.50;;;11.90;99.90;;;;;;5012572;28;20462;-69
2022/03/17 10:12:12;;;;;;;41.67;34.70;;;12.00;99.90;;;;;;5011715;28;20433;-69
2022/03/17 10:14:49;;;;;;;39.37;33.23;;;12.00;99.90;;;;;;5011512;28;20425;-69
2022/03/17 10:17:31;;;;;;;42.50;35.43;;;11.70;99.90;;;;;;5011725;28;20429;-69
2022/03/17 10:20:17;;;;;;;42.47;36.83;;;11.70;99.90;;;;;;5011187;28;20987;-69
2022/03/17 10:22:54;;;;;;;39.87;35.17;;;11.80;99.90;;;;;;5011398;28;20445;-69
2022/03/17 10:25:24;;;;;;;43.60;33.27;;;12.00;99.90;;;;;;5010663;28;20438;-69
2022/03/17 10:27:50;;;;;;;42.13;34.43;;;12.10;99.90;;;;;;5001653;28;20529;-69
2022/03/17 10:30:32;;;;;;;41.70;35.07;;;12.20;99.90;;;;;;4997293;28;20461;-69
2022/03/17 10:33:01;;;;;;;41.10;33.57;;;12.40;99.90;;;;;;5010467;28;20441;-69
2022/03/17 10:35:38;;;;;;;36.90;32.60;;;12.50;99.90;;;;;;5008959;28;20524;-69
2022/03/17 10:38:15;;;;;;;41.83;35.70;;;12.60;99.90;;;;;;5013340;28;20911;-69
2022/03/17 10:40:41;;;;;;;38.20;33.17;;;12.80;99.90;;;;;;5009979;28;20438;-69
2022/03/17 10:43:18;;;;;;;46.20;32.73;;;12.90;99.90;;;;;;5012867;28;20929;-69
2022/03/17 10:45:43;;;;;;;36.40;32.50;;;13.00;99.90;;;;;;5021414;28;20436;-69
2022/03/17 10:48:10;;;;;;;39.57;32.50;;;13.10;99.90;;;;;;4994089;28;20468;-67
2022/03/17 10:50:40;;;;;;;37.00;32.70;;;13.00;99.90;;;;;;5012085;28;20247;-67
2022/03/17 10:53:06;;;;;;;37.10;30.00;;;13.10;99.90;;;;;;5005656;28;20878;-67
2022/03/17 10:55:34;;;;;;;34.23;30.63;;;13.20;99.90;;;;;;5011555;28;20437;-68
2022/03/17 10:58:20;;;;;;;35.03;31.20;;;13.50;99.90;;;;;;5009583;28;20446;-69
2022/03/17 11:00:56;;;;;;;38.13;31.63;;;13.50;99.90;;;;;;5008980;28;20983;-67
2022/03/17 11:03:23;;;;;;;35.17;30.53;;;13.40;99.90;;;;;;5009114;28;20445;-68
2022/03/17 11:05:51;;;;;;;36.57;29.43;;;13.40;99.90;;;;;;5004678;28;20826;-68
2022/03/17 11:08:20;;;;;;;34.93;28.03;;;13.20;99.90;;;;;;5009158;28;20465;-68
2022/03/17 11:10:45;;;;;;;35.43;28.50;;;13.10;99.90;;;;;;5007835;28;20434;-67
2022/03/17 11:13:11;;;;;;;36.13;29.07;;;13.10;99.90;;;;;;5009685;28;20446;-67
2022/03/17 11:15:39;;;;;;;34.80;27.33;;;12.90;99.90;;;;;;5012567;28;20605;-68
2022/03/17 11:18:06;;;;;;;33.30;26.87;;;12.80;99.90;;;;;;5007619;28;20278;-67
2022/03/17 11:20:32;;;;;;;31.73;28.30;;;12.80;99.90;;;;;;5012660;28;20560;-67
2022/03/17 11:23:06;;;;;;;34.13;28.70;;;12.80;99.90;;;;;;5012194;28;20473;-69
2022/03/17 11:25:34;;;;;;;40.60;30.67;;;12.70;99.90;;;;;;5013664;28;21080;-70
2022/03/17 11:28:01;;;;;;;46.47;35.33;;;12.60;99.90;;;;;;5013250;28;22360;-70
2022/03/17 11:30:45;;;;;;;34.43;29.07;;;12.70;99.90;;;;;;5013708;28;20483;-70
2022/03/17 11:33:33;;;;;;;34.90;27.43;;;12.60;99.90;;;;;;4998049;28;20964;-70
2022/03/17 11:36:09;;;;;;;36.17;28.43;;;12.60;99.90;;;;;;5007278;28;20442;-71
2022/03/17 11:38:39;;;;;;;33.63;29.90;;;12.60;99.90;;;;;;5002645;28;20489;-68
2022/03/17 11:41:11;;;;;;;32.47;29.07;;;12.60;99.90;;;;;;5010247;28;20532;-68
2022/03/17 11:43:39;;;;;;;43.00;31.20;;;12.50;99.90;;;;;;5007767;28;20445;-68
2022/03/17 11:46:16;;;;;;;42.07;30.17;;;12.50;99.90;;;;;;5007458;28;20466;-68
2022/03/17 11:48:44;;;;;;;37.77;31.50;;;12.40;99.90;;;;;;4999396;28;20480;-69
2022/03/17 11:51:11;;;;;;;33.67;29.70;;;12.30;99.90;;;;;;5006933;28;20453;-68
2022/03/17 11:53:52;;;;;;;38.80;32.80;;;12.30;99.90;;;;;;5016277;28;20870;-68
2022/03/17 11:56:38;;;;;;;34.67;28.53;;;12.20;99.90;;;;;;5010795;28;20457;-69
2022/03/17 11:59:07;;;;;;;37.87;31.40;;;12.10;99.90;;;;;;5008132;28;20883;-69
2022/03/17 12:01:39;;;;;;;41.07;32.43;;;12.10;99.90;;;;;;5012061;28;20445;-69
2022/03/17 12:04:06;;;;;;;40.20;33.47;;;12.10;99.90;;;;;;5003825;28;21009;-69
2022/03/17 12:06:36;;;;;;;44.87;35.67;;;12.00;99.90;;;;;;5006739;28;20473;-68
2022/03/17 12:09:11;;;;;;;47.13;36.40;;;12.00;99.90;;;;;;5011536;28;20478;-68
2022/03/17 12:11:43;;;;;;;46.10;36.87;;;11.90;99.90;;;;;;5014472;28;21207;-69
2022/03/17 12:14:16;;;;;;;50.07;39.23;;;11.80;99.90;;;;;;5012740;28;20449;-68
2022/03/17 12:16:51;;;;;;;49.50;40.57;;;11.80;99.90;;;;;;5007775;28;20938;-68
2022/03/17 12:19:34;;;;;;;55.97;41.23;;;11.70;99.90;;;;;;5007057;28;20465;-69
2022/03/17 12:22:03;;;;;;;52.50;41.17;;;11.70;99.90;;;;;;5008956;28;20521;-68
2022/03/17 12:24:39;;;;;;;56.80;43.10;;;11.80;99.90;;;;;;5011767;28;20937;-68
2022/03/17 12:27:15;;;;;;;55.33;39.87;;;11.80;99.90;;;;;;4987489;28;20983;-68
2022/03/17 12:29:43;;;;;;;49.57;40.77;;;11.80;99.90;;;;;;5003421;28;20476;-68
2022/03/17 12:32:14;;;;;;;49.00;41.20;;;11.90;99.90;;;;;;4995240;28;21015;-68
2022/03/17 12:34:43;;;;;;;61.20;44.50;;;11.90;99.90;;;;;;5013877;28;20444;-69
2022/03/17 12:37:08;;;;;;;55.73;42.57;;;12.00;99.90;;;;;;4999177;28;20431;-68
2022/03/17 12:39:35;;;;;;;54.77;39.53;;;12.10;99.90;;;;;;5010673;28;20978;-69
2022/03/17 12:42:12;;;;;;;53.43;42.87;;;12.10;99.90;;;;;;5011875;28;20274;-68
2022/03/17 12:44:47;;;;;;;48.53;39.70;;;12.20;99.90;;;;;;5011635;28;20453;-68
2022/03/17 12:47:12;;;;;;;52.10;42.70;;;12.20;99.90;;;;;;5010816;28;20527;-69
2022/03/17 12:49:38;;;;;;;48.40;39.93;;;12.20;99.90;;;;;;5010115;28;20557;-69